sensor_id;sensor_type;location;lat;lon;timestamp;P1;durP1;ratioP1;P2;durP2;ratioP2
18471;SDS011;9365;48.258;12.518;2022-07-03T00:03:38;7.07;;;4.56;;
18471;SDS011;9365;48.258;12.518;2022-07-03T00:09:05;11.36;;;5.090000000000001;;
18471;SDS011;9365;48.258;12.518;2022-07-03T00:14:33;6.51;;;4.24;;
18471;SDS011;9365;48.258;12.518;2022-07-03T00:20:01;8.24;;;4.07;;
18471;SDS011;9365;48.258;12.518;2022-07-03T00:25:28;5.6;;;4.210000000000001;;
18471;SDS011;9365;48.258;12.518;2022-07-03T00:30:56;9.09;;;4.8100000000000005;;
18471;SDS011;9365;48.258;12.518;2022-07-03T00:36:26;7.85;;;4.57;;
18471;SDS011;9365;48.258;12.518;2022-07-03T00:41:59;5.159999999999999;;;4.46;;
18471;SDS011;9365;48.258;12.518;2022-07-03T00:47:27;7.339999999999999;;;4.22;;
18471;SDS011;9365;48.258;12.518;2022-07-03T00:52:54;6.130000000000001;;;4.15;;
18471;SDS011;9365;48.258;12.518;2022-07-03T00:58:24;6.109999999999999;;;4.3199999999999985;;
18471;SDS011;9365;48.258;12.518;2022-07-03T01:03:53;6.069999999999999;;;3.9800000000000004;;
18471;SDS011;9365;48.258;12.518;2022-07-03T01:09:29;6.1899999999999995;;;4.540000000000001;;
18471;SDS011;9365;48.258;12.518;2022-07-03T01:15:04;4.4399999999999995;;;3.71;;
18471;SDS011;9365;48.258;12.518;2022-07-03T01:20:32;5.1;;;3.25;;
18471;SDS011;9365;48.258;12.518;2022-07-03T01:26:04;4.529999999999999;;;3.3599999999999994;;
18471;SDS011;9365;48.258;12.518;2022-07-03T01:31:33;4.27;;;3.4400000000000004;;
18471;SDS011;9365;48.258;12.518;2022-07-03T01:37:04;3.71;;;3.3899999999999997;;
18471;SDS011;9365;48.258;12.518;2022-07-03T01:42:32;3.7399999999999998;;;3.2800000000000002;;
18471;SDS011;9365;48.258;12.518;2022-07-03T01:48:00;4.74;;;3.9699999999999998;;
18471;SDS011;9365;48.258;12.518;2022-07-03T01:53:29;8.1;;;3.3600000000000003;;
18471;SDS011;9365;48.258;12.518;2022-07-03T01:58:58;4.950000000000001;;;3.7800000000000002;;
18471;SDS011;9365;48.258;12.518;2022-07-03T02:04:28;4.71;;;3.7999999999999994;;
18471;SDS011;9365;48.258;12.518;2022-07-03T02:09:58;5.6499999999999995;;;3.65;;
18471;SDS011;9365;48.258;12.518;2022-07-03T02:15:29;9.41;;;3.8899999999999997;;
18471;SDS011;9365;48.258;12.518;2022-07-03T02:21:02;12.22;;;3.7699999999999996;;
18471;SDS011;9365;48.258;12.518;2022-07-03T02:26:32;4.790000000000001;;;3.5;;
18471;SDS011;9365;48.258;12.518;2022-07-03T02:32:00;4.9399999999999995;;;3.79;;
18471;SDS011;9365;48.258;12.518;2022-07-03T02:37:32;11.490000000000002;;;3.9099999999999993;;
18471;SDS011;9365;48.258;12.518;2022-07-03T02:43:02;6.029999999999999;;;4.24;;
18471;SDS011;9365;48.258;12.518;2022-07-03T02:48:39;8.120000000000001;;;4.789999999999999;;
18471;SDS011;9365;48.258;12.518;2022-07-03T02:54:09;8.4;;;5.1;;
18471;SDS011;9365;48.258;12.518;2022-07-03T02:59:42;6.959999999999999;;;4.64;;
18471;SDS011;9365;48.258;12.518;2022-07-03T03:05:13;6.08;;;4.090000000000001;;
18471;SDS011;9365;48.258;12.518;2022-07-03T03:10:40;8.059999999999999;;;4.52;;
18471;SDS011;9365;48.258;12.518;2022-07-03T03:16:09;6.609999999999999;;;4.699999999999999;;
18471;SDS011;9365;48.258;12.518;2022-07-03T03:21:37;5.58;;;4.42;;
18471;SDS011;9365;48.258;12.518;2022-07-03T03:27:10;6.660000000000001;;;4.91;;
18471;SDS011;9365;48.258;12.518;2022-07-03T03:32:38;8.69;;;4.01;;
18471;SDS011;9365;48.258;12.518;2022-07-03T03:38:06;5.8100000000000005;;;4.33;;
18471;SDS011;9365;48.258;12.518;2022-07-03T03:43:34;6.93;;;4.13;;
18471;SDS011;9365;48.258;12.518;2022-07-03T03:49:01;5.14;;;3.8200000000000003;;
18471;SDS011;9365;48.258;12.518;2022-07-03T03:54:29;7.49;;;4.11;;
18471;SDS011;9365;48.258;12.518;2022-07-03T03:59:57;7.470000000000001;;;4.18;;
18471;SDS011;9365;48.258;12.518;2022-07-03T04:05:25;5.93;;;4.739999999999999;;
18471;SDS011;9365;48.258;12.518;2022-07-03T04:10:52;7.709999999999999;;;4.17;;
18471;SDS011;9365;48.258;12.518;2022-07-03T04:16:19;6.16;;;4.319999999999999;;
18471;SDS011;9365;48.258;12.518;2022-07-03T04:21:47;7.32;;;4.450000000000001;;
18471;SDS011;9365;48.258;12.518;2022-07-03T04:27:14;8.84;;;5.13;;
18471;SDS011;9365;48.258;12.518;2022-07-03T04:32:42;6.0;;;4.39;;
18471;SDS011;9365;48.258;12.518;2022-07-03T04:38:09;10.780000000000001;;;5.33;;
18471;SDS011;9365;48.258;12.518;2022-07-03T04:43:37;8.96;;;5.45;;
18471;SDS011;9365;48.258;12.518;2022-07-03T04:49:04;7.8;;;5.540000000000001;;
18471;SDS011;9365;48.258;12.518;2022-07-03T04:54:33;6.859999999999999;;;5.71;;
18471;SDS011;9365;48.258;12.518;2022-07-03T05:00:00;7.010000000000001;;;5.610000000000001;;
18471;SDS011;9365;48.258;12.518;2022-07-03T05:05:28;6.55;;;5.480000000000001;;
18471;SDS011;9365;48.258;12.518;2022-07-03T05:10:56;7.040000000000001;;;5.110000000000001;;
18471;SDS011;9365;48.258;12.518;2022-07-03T05:16:23;5.890000000000001;;;4.43;;
18471;SDS011;9365;48.258;12.518;2022-07-03T05:21:51;8.43;;;5.130000000000001;;
18471;SDS011;9365;48.258;12.518;2022-07-03T05:27:18;6.029999999999999;;;4.5200000000000005;;
18471;SDS011;9365;48.258;12.518;2022-07-03T05:32:46;5.9;;;5.07;;
18471;SDS011;9365;48.258;12.518;2022-07-03T05:38:14;8.6;;;5.0;;
18471;SDS011;9365;48.258;12.518;2022-07-03T05:43:42;7.589999999999999;;;4.83;;
18471;SDS011;9365;48.258;12.518;2022-07-03T05:49:10;6.540000000000001;;;4.4799999999999995;;
18471;SDS011;9365;48.258;12.518;2022-07-03T05:54:37;6.0600000000000005;;;4.6899999999999995;;
18471;SDS011;9365;48.258;12.518;2022-07-03T06:00:05;9.65;;;4.799999999999999;;
18471;SDS011;9365;48.258;12.518;2022-07-03T06:05:33;5.6499999999999995;;;4.09;;
18471;SDS011;9365;48.258;12.518;2022-07-03T06:11:01;8.010000000000002;;;4.2;;
18471;SDS011;9365;48.258;12.518;2022-07-03T06:16:28;8.65;;;4.85;;
18471;SDS011;9365;48.258;12.518;2022-07-03T06:21:56;7.38;;;3.7399999999999998;;
18471;SDS011;9365;48.258;12.518;2022-07-03T06:27:23;5.65;;;3.729999999999999;;
18471;SDS011;9365;48.258;12.518;2022-07-03T06:32:51;4.71;;;4.17;;
18471;SDS011;9365;48.258;12.518;2022-07-03T06:38:18;10.56;;;4.07;;
18471;SDS011;9365;48.258;12.518;2022-07-03T06:43:46;5.43;;;3.94;;
18471;SDS011;9365;48.258;12.518;2022-07-03T06:49:14;4.69;;;3.6999999999999993;;
18471;SDS011;9365;48.258;12.518;2022-07-03T06:54:41;5.01;;;3.2;;
18471;SDS011;9365;48.258;12.518;2022-07-03T07:00:09;3.8899999999999997;;;3.0700000000000003;;
18471;SDS011;9365;48.258;12.518;2022-07-03T07:05:37;4.75;;;3.5200000000000005;;
18471;SDS011;9365;48.258;12.518;2022-07-03T07:11:05;3.95;;;2.6;;
18471;SDS011;9365;48.258;12.518;2022-07-03T07:16:32;3.0300000000000002;;;2.34;;
18471;SDS011;9365;48.258;12.518;2022-07-03T07:22:00;2.8600000000000003;;;2.17;;
18471;SDS011;9365;48.258;12.518;2022-07-03T07:27:28;7.040000000000001;;;3.0200000000000005;;
18471;SDS011;9365;48.258;12.518;2022-07-03T07:32:55;4.11;;;2.62;;
18471;SDS011;9365;48.258;12.518;2022-07-03T07:38:23;2.68;;;2.3;;
18471;SDS011;9365;48.258;12.518;2022-07-03T07:43:51;3.0300000000000002;;;2.25;;
18471;SDS011;9365;48.258;12.518;2022-07-03T07:49:18;2.15;;;1.95;;
18471;SDS011;9365;48.258;12.518;2022-07-03T07:54:46;3.1600000000000006;;;2.21;;
18471;SDS011;9365;48.258;12.518;2022-07-03T08:00:14;2.33;;;2.1800000000000006;;
18471;SDS011;9365;48.258;12.518;2022-07-03T08:05:42;3.02;;;2.2199999999999998;;
18471;SDS011;9365;48.258;12.518;2022-07-03T08:11:10;2.5100000000000002;;;2.12;;
18471;SDS011;9365;48.258;12.518;2022-07-03T08:16:37;2.4799999999999995;;;2.11;;
18471;SDS011;9365;48.258;12.518;2022-07-03T08:22:05;2.64;;;2.06;;
18471;SDS011;9365;48.258;12.518;2022-07-03T08:27:32;2.6000000000000005;;;1.75;;
18471;SDS011;9365;48.258;12.518;2022-07-03T08:33:00;2.77;;;1.7;;
18471;SDS011;9365;48.258;12.518;2022-07-03T08:38:29;1.85;;;1.6900000000000002;;
18471;SDS011;9365;48.258;12.518;2022-07-03T08:43:59;2.46;;;1.47;;
18471;SDS011;9365;48.258;12.518;2022-07-03T08:49:26;1.64;;;1.56;;
18471;SDS011;9365;48.258;12.518;2022-07-03T08:54:55;1.21;;;1.2;;
18471;SDS011;9365;48.258;12.518;2022-07-03T09:00:22;4.279999999999999;;;1.33;;
18471;SDS011;9365;48.258;12.518;2022-07-03T09:05:50;2.49;;;1.4000000000000001;;
18471;SDS011;9365;48.258;12.518;2022-07-03T09:11:18;1.0699999999999998;;;1.03;;
18471;SDS011;9365;48.258;12.518;2022-07-03T09:16:46;0.9899999999999999;;;0.9899999999999999;;
18471;SDS011;9365;48.258;12.518;2022-07-03T09:22:16;1.3599999999999999;;;1.1;;
18471;SDS011;9365;48.258;12.518;2022-07-03T09:27:49;1.9999999999999996;;;1.31;;
18471;SDS011;9365;48.258;12.518;2022-07-03T09:33:18;1.55;;;1.0;;
18471;SDS011;9365;48.258;12.518;2022-07-03T09:38:46;2.75;;;1.4;;
18471;SDS011;9365;48.258;12.518;2022-07-03T09:44:15;1.7;;;1.1699999999999997;;
18471;SDS011;9365;48.258;12.518;2022-07-03T09:49:55;1.81;;;1.0999999999999999;;
18471;SDS011;9365;48.258;12.518;2022-07-03T09:55:23;1.0299999999999998;;;0.95;;
18471;SDS011;9365;48.258;12.518;2022-07-03T10:00:51;1.6;;;1.5599999999999998;;
18471;SDS011;9365;48.258;12.518;2022-07-03T10:06:18;1.8800000000000001;;;1.1199999999999997;;
18471;SDS011;9365;48.258;12.518;2022-07-03T10:11:46;1.42;;;1.35;;
18471;SDS011;9365;48.258;12.518;2022-07-03T10:17:14;1.3;;;1.2499999999999998;;
18471;SDS011;9365;48.258;12.518;2022-07-03T10:22:42;1.1700000000000002;;;1.0899999999999999;;
18471;SDS011;9365;48.258;12.518;2022-07-03T10:28:12;1.6200000000000003;;;0.85;;
18471;SDS011;9365;48.258;12.518;2022-07-03T10:33:40;2.16;;;1.3599999999999999;;
18471;SDS011;9365;48.258;12.518;2022-07-03T10:39:08;1.33;;;1.15;;
18471;SDS011;9365;48.258;12.518;2022-07-03T10:44:51;2.85;;;1.37;;
18471;SDS011;9365;48.258;12.518;2022-07-03T10:50:19;1.38;;;1.31;;
18471;SDS011;9365;48.258;12.518;2022-07-03T10:56:01;1.3800000000000001;;;1.3;;
18471;SDS011;9365;48.258;12.518;2022-07-03T11:01:29;1.8599999999999999;;;1.5399999999999998;;
18471;SDS011;9365;48.258;12.518;2022-07-03T11:07:13;3.08;;;1.3000000000000003;;
18471;SDS011;9365;48.258;12.518;2022-07-03T11:12:57;1.73;;;1.2400000000000002;;
18471;SDS011;9365;48.258;12.518;2022-07-03T11:18:26;1.14;;;1.14;;
18471;SDS011;9365;48.258;12.518;2022-07-03T11:24:13;2.71;;;1.0599999999999998;;
18471;SDS011;9365;48.258;12.518;2022-07-03T11:29:47;1.1999999999999997;;;1.15;;
18471;SDS011;9365;48.258;12.518;2022-07-03T11:38:22;4.09;;;1.1199999999999997;;
18471;SDS011;9365;48.258;12.518;2022-07-03T11:43:51;1.31;;;1.2200000000000002;;
18471;SDS011;9365;48.258;12.518;2022-07-03T11:49:20;1.1;;;1.1;;
18471;SDS011;9365;48.258;12.518;2022-07-03T11:54:50;2.42;;;1.3000000000000003;;
18471;SDS011;9365;48.258;12.518;2022-07-03T12:00:18;1.86;;;1.3900000000000001;;
18471;SDS011;9365;48.258;12.518;2022-07-03T12:05:49;1.2899999999999998;;;1.2899999999999998;;
18471;SDS011;9365;48.258;12.518;2022-07-03T12:11:17;1.11;;;1.0799999999999998;;
18471;SDS011;9365;48.258;12.518;2022-07-03T12:16:45;1.25;;;1.2100000000000002;;
18471;SDS011;9365;48.258;12.518;2022-07-03T12:22:12;1.2399999999999998;;;1.22;;
18471;SDS011;9365;48.258;12.518;2022-07-03T12:27:40;1.14;;;1.13;;
18471;SDS011;9365;48.258;12.518;2022-07-03T12:33:08;3.6;;;1.08;;
18471;SDS011;9365;48.258;12.518;2022-07-03T12:38:36;1.3000000000000003;;;1.27;;
18471;SDS011;9365;48.258;12.518;2022-07-03T12:44:04;1.02;;;1.0;;
18471;SDS011;9365;48.258;12.518;2022-07-03T12:49:32;1.21;;;1.21;;
18471;SDS011;9365;48.258;12.518;2022-07-03T12:55:00;1.8;;;1.18;;
18471;SDS011;9365;48.258;12.518;2022-07-03T13:00:28;1.01;;;1.0;;
18471;SDS011;9365;48.258;12.518;2022-07-03T13:05:56;1.75;;;1.1599999999999997;;
18471;SDS011;9365;48.258;12.518;2022-07-03T13:11:28;1.56;;;1.42;;
18471;SDS011;9365;48.258;12.518;2022-07-03T13:16:56;2.1699999999999995;;;1.01;;
18471;SDS011;9365;48.258;12.518;2022-07-03T13:22:24;1.57;;;1.1799999999999997;;
18471;SDS011;9365;48.258;12.518;2022-07-03T13:27:51;1.44;;;0.79;;
18471;SDS011;9365;48.258;12.518;2022-07-03T13:33:19;1.3599999999999999;;;0.73;;
18471;SDS011;9365;48.258;12.518;2022-07-03T13:38:47;1.3800000000000001;;;0.8799999999999999;;
18471;SDS011;9365;48.258;12.518;2022-07-03T13:44:14;0.8300000000000001;;;0.8300000000000001;;
18471;SDS011;9365;48.258;12.518;2022-07-03T13:49:42;0.74;;;0.68;;
18471;SDS011;9365;48.258;12.518;2022-07-03T13:55:09;1.1;;;0.7300000000000001;;
18471;SDS011;9365;48.258;12.518;2022-07-03T14:00:38;0.95;;;0.9099999999999999;;
18471;SDS011;9365;48.258;12.518;2022-07-03T14:06:05;0.96;;;0.72;;
18471;SDS011;9365;48.258;12.518;2022-07-03T14:11:33;8.11;;;0.65;;
18471;SDS011;9365;48.258;12.518;2022-07-03T14:17:01;0.75;;;0.75;;
18471;SDS011;9365;48.258;12.518;2022-07-03T14:22:29;1.3699999999999999;;;0.67;;
18471;SDS011;9365;48.258;12.518;2022-07-03T14:27:57;1.1300000000000001;;;0.8;;
18471;SDS011;9365;48.258;12.518;2022-07-03T14:33:24;1.22;;;0.74;;
18471;SDS011;9365;48.258;12.518;2022-07-03T14:38:52;0.9700000000000001;;;0.62;;
18471;SDS011;9365;48.258;12.518;2022-07-03T14:44:19;0.8799999999999999;;;0.8799999999999999;;
18471;SDS011;9365;48.258;12.518;2022-07-03T14:49:47;1.1300000000000001;;;0.9100000000000001;;
18471;SDS011;9365;48.258;12.518;2022-07-03T14:55:15;2.0599999999999996;;;0.73;;
18471;SDS011;9365;48.258;12.518;2022-07-03T15:00:45;1.2799999999999998;;;0.9400000000000001;;
18471;SDS011;9365;48.258;12.518;2022-07-03T15:06:13;1.7100000000000002;;;1.13;;
18471;SDS011;9365;48.258;12.518;2022-07-03T15:11:45;0.9100000000000001;;;0.8800000000000001;;
18471;SDS011;9365;48.258;12.518;2022-07-03T15:17:14;1.6600000000000001;;;0.8200000000000001;;
18471;SDS011;9365;48.258;12.518;2022-07-03T15:22:43;3.15;;;2.44;;
18471;SDS011;9365;48.258;12.518;2022-07-03T15:28:11;0.76;;;0.76;;
18471;SDS011;9365;48.258;12.518;2022-07-03T15:33:39;5.910000000000001;;;4.340000000000001;;
18471;SDS011;9365;48.258;12.518;2022-07-03T15:39:07;1.3199999999999998;;;1.1199999999999999;;
18471;SDS011;9365;48.258;12.518;2022-07-03T15:44:37;0.8900000000000002;;;0.8200000000000001;;
18471;SDS011;9365;48.258;12.518;2022-07-03T15:50:05;1.7799999999999998;;;0.9100000000000001;;
18471;SDS011;9365;48.258;12.518;2022-07-03T15:55:33;2.3299999999999996;;;0.9100000000000001;;
18471;SDS011;9365;48.258;12.518;2022-07-03T16:01:04;3.1700000000000004;;;1.13;;
18471;SDS011;9365;48.258;12.518;2022-07-03T16:06:32;2.4799999999999995;;;1.01;;
18471;SDS011;9365;48.258;12.518;2022-07-03T16:12:00;1.3800000000000001;;;0.75;;
18471;SDS011;9365;48.258;12.518;2022-07-03T16:17:27;3.56;;;1.92;;
18471;SDS011;9365;48.258;12.518;2022-07-03T16:22:55;2.35;;;1.95;;
18471;SDS011;9365;48.258;12.518;2022-07-03T16:28:23;7.950000000000001;;;5.860000000000001;;
18471;SDS011;9365;48.258;12.518;2022-07-03T16:33:54;3.5799999999999996;;;2.8899999999999997;;
18471;SDS011;9365;48.258;12.518;2022-07-03T16:39:25;3.53;;;2.6799999999999997;;
18471;SDS011;9365;48.258;12.518;2022-07-03T16:44:53;1.9099999999999997;;;1.72;;
18471;SDS011;9365;48.258;12.518;2022-07-03T16:50:21;2.7;;;1.18;;
18471;SDS011;9365;48.258;12.518;2022-07-03T16:55:49;4.81;;;1.02;;
18471;SDS011;9365;48.258;12.518;2022-07-03T17:01:17;6.2700000000000005;;;1.09;;
18471;SDS011;9365;48.258;12.518;2022-07-03T17:06:45;1.95;;;0.86;;
18471;SDS011;9365;48.258;12.518;2022-07-03T17:12:13;1.7599999999999998;;;0.9800000000000001;;
18471;SDS011;9365;48.258;12.518;2022-07-03T17:17:42;0.72;;;0.6900000000000001;;
18471;SDS011;9365;48.258;12.518;2022-07-03T17:23:12;0.95;;;0.9;;
18471;SDS011;9365;48.258;12.518;2022-07-03T17:28:44;1.19;;;0.99;;
18471;SDS011;9365;48.258;12.518;2022-07-03T17:34:14;1.24;;;1.03;;
18471;SDS011;9365;48.258;12.518;2022-07-03T17:39:42;4.619999999999999;;;1.05;;
18471;SDS011;9365;48.258;12.518;2022-07-03T17:45:11;1.3;;;1.1099999999999999;;
18471;SDS011;9365;48.258;12.518;2022-07-03T17:50:39;0.9800000000000001;;;0.9800000000000001;;
18471;SDS011;9365;48.258;12.518;2022-07-03T17:56:09;1.02;;;0.9700000000000001;;
18471;SDS011;9365;48.258;12.518;2022-07-03T18:01:36;4.71;;;1.05;;
18471;SDS011;9365;48.258;12.518;2022-07-03T18:07:04;1.61;;;1.01;;
18471;SDS011;9365;48.258;12.518;2022-07-03T18:12:34;3.3899999999999997;;;0.9;;
18471;SDS011;9365;48.258;12.518;2022-07-03T18:18:06;0.9199999999999999;;;0.8600000000000001;;
18471;SDS011;9365;48.258;12.518;2022-07-03T18:23:38;1.3599999999999999;;;1.18;;
18471;SDS011;9365;48.258;12.518;2022-07-03T18:29:07;1.6;;;1.56;;
18471;SDS011;9365;48.258;12.518;2022-07-03T18:34:35;2.5100000000000002;;;2.21;;
18471;SDS011;9365;48.258;12.518;2022-07-03T18:40:04;4.21;;;2.58;;
18471;SDS011;9365;48.258;12.518;2022-07-03T18:45:31;2.2399999999999998;;;1.35;;
18471;SDS011;9365;48.258;12.518;2022-07-03T18:51:02;3.6100000000000003;;;1.06;;
18471;SDS011;9365;48.258;12.518;2022-07-03T18:56:33;4.01;;;0.99;;
18471;SDS011;9365;48.258;12.518;2022-07-03T19:02:01;2.4999999999999996;;;1.1199999999999999;;
18471;SDS011;9365;48.258;12.518;2022-07-03T19:07:30;2.17;;;1.72;;
18471;SDS011;9365;48.258;12.518;2022-07-03T19:12:59;2.21;;;1.53;;
18471;SDS011;9365;48.258;12.518;2022-07-03T19:18:29;4.1899999999999995;;;1.92;;
18471;SDS011;9365;48.258;12.518;2022-07-03T19:23:56;2.2199999999999998;;;1.4100000000000001;;
18471;SDS011;9365;48.258;12.518;2022-07-03T19:29:24;4.69;;;1.89;;
18471;SDS011;9365;48.258;12.518;2022-07-03T19:34:51;1.6800000000000002;;;1.61;;
18471;SDS011;9365;48.258;12.518;2022-07-03T19:40:19;5.180000000000001;;;1.8099999999999998;;
18471;SDS011;9365;48.258;12.518;2022-07-03T19:45:46;5.79;;;2.1;;
18471;SDS011;9365;48.258;12.518;2022-07-03T19:51:14;7.8;;;2.62;;
18471;SDS011;9365;48.258;12.518;2022-07-03T19:56:41;3.37;;;2.42;;
18471;SDS011;9365;48.258;12.518;2022-07-03T20:02:09;4.97;;;1.9700000000000002;;
18471;SDS011;9365;48.258;12.518;2022-07-03T20:07:37;3.63;;;1.61;;
18471;SDS011;9365;48.258;12.518;2022-07-03T20:13:04;1.45;;;1.27;;
18471;SDS011;9365;48.258;12.518;2022-07-03T20:18:32;1.69;;;1.58;;
18471;SDS011;9365;48.258;12.518;2022-07-03T20:24:48;4.26;;;2.03;;
18471;SDS011;9365;48.258;12.518;2022-07-03T20:30:17;2.59;;;1.8900000000000001;;
18471;SDS011;9365;48.258;12.518;2022-07-03T20:35:45;2.35;;;1.6099999999999999;;
18471;SDS011;9365;48.258;12.518;2022-07-03T20:41:13;6.29;;;1.45;;
18471;SDS011;9365;48.258;12.518;2022-07-03T20:46:40;3.6100000000000003;;;1.43;;
18471;SDS011;9365;48.258;12.518;2022-07-03T20:52:08;4.3100000000000005;;;1.55;;
18471;SDS011;9365;48.258;12.518;2022-07-03T20:57:35;6.24;;;1.6;;
18471;SDS011;9365;48.258;12.518;2022-07-03T21:03:03;2.75;;;1.6199999999999999;;
18471;SDS011;9365;48.258;12.518;2022-07-03T21:08:30;5.31;;;1.9199999999999995;;
18471;SDS011;9365;48.258;12.518;2022-07-03T21:13:58;4.0600000000000005;;;1.6;;
18471;SDS011;9365;48.258;12.518;2022-07-03T21:19:26;2.2399999999999998;;;1.7100000000000002;;
18471;SDS011;9365;48.258;12.518;2022-07-03T21:24:54;4.17;;;1.89;;
18471;SDS011;9365;48.258;12.518;2022-07-03T21:30:21;4.44;;;1.8199999999999998;;
18471;SDS011;9365;48.258;12.518;2022-07-03T21:35:49;4.27;;;2.05;;
18471;SDS011;9365;48.258;12.518;2022-07-03T21:41:17;3.06;;;1.6200000000000003;;
18471;SDS011;9365;48.258;12.518;2022-07-03T21:46:45;3.69;;;1.53;;
18471;SDS011;9365;48.258;12.518;2022-07-03T21:52:12;2.79;;;1.94;;
18471;SDS011;9365;48.258;12.518;2022-07-03T21:57:40;3.9299999999999997;;;1.85;;
18471;SDS011;9365;48.258;12.518;2022-07-03T22:03:08;7.01;;;1.6600000000000001;;
18471;SDS011;9365;48.258;12.518;2022-07-03T22:08:35;4.459999999999999;;;1.9700000000000002;;
18471;SDS011;9365;48.258;12.518;2022-07-03T22:14:03;1.64;;;1.42;;
18471;SDS011;9365;48.258;12.518;2022-07-03T22:19:31;3.21;;;1.85;;
18471;SDS011;9365;48.258;12.518;2022-07-03T22:24:59;2.9999999999999996;;;1.98;;
18471;SDS011;9365;48.258;12.518;2022-07-03T22:30:27;3.2400000000000007;;;2.02;;
18471;SDS011;9365;48.258;12.518;2022-07-03T22:35:54;2.96;;;1.8800000000000001;;
18471;SDS011;9365;48.258;12.518;2022-07-03T22:41:22;4.04;;;1.9;;
18471;SDS011;9365;48.258;12.518;2022-07-03T22:46:50;3.5;;;1.81;;
18471;SDS011;9365;48.258;12.518;2022-07-03T22:52:18;3.1999999999999997;;;2.0;;
18471;SDS011;9365;48.258;12.518;2022-07-03T22:57:46;5.03;;;2.23;;
18471;SDS011;9365;48.258;12.518;2022-07-03T23:03:13;6.76;;;2.19;;
18471;SDS011;9365;48.258;12.518;2022-07-03T23:08:41;2.7800000000000002;;;1.9299999999999997;;
18471;SDS011;9365;48.258;12.518;2022-07-03T23:14:08;5.029999999999999;;;2.04;;
18471;SDS011;9365;48.258;12.518;2022-07-03T23:19:36;6.7700000000000005;;;2.1000000000000005;;
18471;SDS011;9365;48.258;12.518;2022-07-03T23:25:04;4.43;;;1.97;;
18471;SDS011;9365;48.258;12.518;2022-07-03T23:30:31;4.37;;;1.7399999999999998;;
18471;SDS011;9365;48.258;12.518;2022-07-03T23:35:59;4.4399999999999995;;;1.98;;
18471;SDS011;9365;48.258;12.518;2022-07-03T23:41:26;3.46;;;2.0100000000000002;;
18471;SDS011;9365;48.258;12.518;2022-07-03T23:46:54;5.4399999999999995;;;2.2399999999999998;;
18471;SDS011;9365;48.258;12.518;2022-07-03T23:52:21;6.56;;;2.33;;
18471;SDS011;9365;48.258;12.518;2022-07-03T23:57:49;5.13;;;2.0000000000000004;;
